createdAt,value
2017-04-07T00:00:14.526Z,0
2017-04-07T00:01:24.806Z,0
2017-04-07T00:02:35.080Z,0
2017-04-07T00:03:45.592Z,0
2017-04-07T00:04:55.875Z,0
2017-04-07T00:06:06.141Z,0
2017-04-07T00:07:16.410Z,0
2017-04-07T00:08:26.716Z,0
2017-04-07T00:09:37.239Z,0
2017-04-07T00:10:47.510Z,0
2017-04-07T00:11:57.789Z,0
2017-04-07T00:13:08.067Z,0
2017-04-07T00:14:18.339Z,0
2017-04-07T00:15:28.909Z,0
2017-04-07T00:16:39.196Z,0
2017-04-07T00:17:49.475Z,0
2017-04-07T00:18:59.117Z,0
2017-04-07T00:20:08.769Z,0
2017-04-07T00:21:19.291Z,0
2017-04-07T00:22:29.579Z,0
2017-04-07T00:23:39.869Z,0
2017-04-07T00:24:49.821Z,0
2017-04-07T00:25:59.773Z,0
2017-04-07T00:27:10.312Z,0
2017-04-07T00:28:20.267Z,0
2017-04-07T00:29:30.543Z,0
2017-04-07T00:30:40.850Z,0
2017-04-07T00:31:50.812Z,0
2017-04-07T00:33:01.322Z,0
2017-04-07T00:34:11.386Z,0
2017-04-07T00:35:21.655Z,0
2017-04-07T00:36:31.923Z,0
2017-04-07T00:37:42.294Z,0
2017-04-07T00:38:52.190Z,0
2017-04-07T00:40:02.457Z,0
2017-04-07T00:41:12.426Z,0
2017-04-07T00:42:22.384Z,0
2017-04-07T00:43:32.043Z,0
2017-04-07T00:44:42.255Z,0
2017-04-07T00:45:52.526Z,0
2017-04-07T00:47:02.818Z,0
2017-04-07T00:48:13.085Z,0
2017-04-07T00:49:23.046Z,0
2017-04-07T00:50:33.571Z,0
2017-04-07T00:51:43.221Z,0
2017-04-07T00:52:53.485Z,0
2017-04-07T00:54:03.449Z,0
2017-04-07T00:55:13.719Z,0
2017-04-07T00:56:23.934Z,0
2017-04-07T00:57:34.205Z,0
2017-04-07T00:58:44.487Z,0
2017-04-07T00:59:54.438Z,0
2017-04-07T01:01:04.703Z,0
2017-04-07T01:02:14.919Z,0
2017-04-07T01:03:25.187Z,0
2017-04-07T01:04:35.459Z,0
2017-04-07T01:05:45.726Z,0
2017-04-07T01:06:56.000Z,0
2017-04-07T01:08:06.532Z,0
2017-04-07T01:09:16.810Z,0
2017-04-07T01:10:27.082Z,0
2017-04-07T01:11:36.734Z,0
2017-04-07T01:12:46.688Z,0
2017-04-07T01:13:56.895Z,0
2017-04-07T01:15:07.162Z,0
2017-04-07T01:16:17.427Z,0
2017-04-07T01:17:27.077Z,0
2017-04-07T01:18:37.333Z,0
2017-04-07T01:19:47.874Z,0
2017-04-07T01:20:58.159Z,0
2017-04-07T01:22:08.424Z,0
2017-04-07T01:23:18.542Z,0
2017-04-07T01:24:28.806Z,0
2017-04-07T01:25:39.336Z,0
2017-04-07T01:26:49.293Z,0
2017-04-07T01:27:59.570Z,0
2017-04-07T01:29:09.525Z,0
2017-04-07T01:30:19.798Z,0
2017-04-07T01:31:30.324Z,0
2017-04-07T01:32:39.959Z,0
2017-04-07T01:33:49.917Z,0
2017-04-07T01:35:00.186Z,0
2017-04-07T01:36:10.151Z,0
2017-04-07T01:37:20.353Z,0
2017-04-07T01:38:30.623Z,0
2017-04-07T01:39:40.901Z,0
2017-04-07T01:40:50.845Z,0
2017-04-07T01:42:00.187Z,0
2017-04-07T01:43:10.463Z,0
2017-04-07T01:44:20.426Z,0
2017-04-07T01:45:30.693Z,0
2017-04-07T01:46:40.969Z,0
2017-04-07T01:47:50.924Z,0
2017-04-07T01:49:01.133Z,0
2017-04-07T01:50:11.400Z,0
2017-04-07T01:51:21.362Z,0
2017-04-07T01:52:31.643Z,0
2017-04-07T01:53:41.913Z,0
2017-04-07T01:54:52.438Z,0
2017-04-07T01:56:02.697Z,0
2017-04-07T01:57:12.664Z,0
2017-04-07T01:58:22.927Z,0
2017-04-07T01:59:33.207Z,0
2017-04-07T02:00:43.421Z,0
2017-04-07T02:01:53.706Z,0
2017-04-07T02:03:03.982Z,0
2017-04-07T02:04:14.255Z,0
2017-04-07T02:05:23.905Z,0
2017-04-07T02:06:34.109Z,0
2017-04-07T02:07:44.377Z,0
2017-04-07T02:08:54.343Z,0
2017-04-07T02:10:04.304Z,0
2017-04-07T02:11:14.571Z,0
2017-04-07T02:12:24.783Z,0
2017-04-07T02:13:34.732Z,0
2017-04-07T02:14:45.011Z,0
2017-04-07T02:15:55.289Z,0
2017-04-07T02:17:05.261Z,0
2017-04-07T02:18:15.845Z,0
2017-04-07T02:19:26.114Z,0
2017-04-07T02:20:36.399Z,0
2017-04-07T02:21:46.675Z,0
2017-04-07T02:22:56.940Z,0
2017-04-07T02:24:07.147Z,0
2017-04-07T02:25:17.436Z,0
2017-04-07T02:26:27.107Z,0
2017-04-07T02:27:37.397Z,0
2017-04-07T02:28:47.661Z,0
2017-04-07T02:29:58.181Z,0
2017-04-07T02:31:08.448Z,0
2017-04-07T02:32:18.745Z,0
2017-04-07T02:33:28.704Z,0
2017-04-07T02:34:38.978Z,0
2017-04-07T02:35:48.622Z,0
2017-04-07T02:36:58.580Z,0
2017-04-07T02:38:08.566Z,0
2017-04-07T02:39:18.830Z,0
2017-04-07T02:40:28.793Z,0
2017-04-07T02:41:39.317Z,0
2017-04-07T02:42:49.278Z,0
2017-04-07T02:43:59.551Z,0
2017-04-07T02:45:09.520Z,0
2017-04-07T02:46:19.792Z,0
2017-04-07T02:47:30.507Z,0
2017-04-07T02:48:40.774Z,0
2017-04-07T02:49:51.047Z,0
2017-04-07T02:51:01.321Z,0
2017-04-07T02:52:10.970Z,0
2017-04-07T02:53:20.869Z,0
2017-04-07T02:54:31.141Z,0
2017-04-07T02:55:41.445Z,0
2017-04-07T02:56:51.418Z,0
2017-04-07T02:58:01.690Z,0
2017-04-07T02:59:11.638Z,0
2017-04-07T03:00:21.905Z,0
2017-04-07T03:01:31.874Z,0
2017-04-07T03:02:41.527Z,0
2017-04-07T03:03:51.483Z,0
2017-04-07T03:05:02.053Z,0
2017-04-07T03:06:12.320Z,0
2017-04-07T03:07:22.589Z,0
2017-04-07T03:08:32.861Z,0
2017-04-07T03:09:43.132Z,0
2017-04-07T03:10:53.021Z,0
2017-04-07T03:12:02.992Z,0
2017-04-07T03:13:12.950Z,0
2017-04-07T03:14:22.914Z,0
2017-04-07T03:15:32.879Z,0
2017-04-07T03:16:43.399Z,0
2017-04-07T03:17:53.672Z,0
2017-04-07T03:19:03.655Z,0
2017-04-07T03:20:13.619Z,0
2017-04-07T03:21:23.891Z,0
2017-04-07T03:22:34.474Z,0
2017-04-07T03:23:44.742Z,0
2017-04-07T03:24:55.024Z,0
2017-04-07T03:26:05.299Z,0
2017-04-07T03:27:15.580Z,0
2017-04-07T03:28:26.146Z,0
2017-04-07T03:29:36.110Z,0
2017-04-07T03:30:46.077Z,0
2017-04-07T03:31:56.350Z,0
2017-04-07T03:33:06.637Z,0
2017-04-07T03:34:16.847Z,0
2017-04-07T03:35:27.121Z,0
2017-04-07T03:36:37.081Z,0
2017-04-07T03:37:47.352Z,0
2017-04-07T03:38:57.614Z,0
2017-04-07T03:40:08.201Z,0
2017-04-07T03:41:18.466Z,0
2017-04-07T03:42:28.442Z,0
2017-04-07T03:43:38.732Z,0
2017-04-07T03:44:49.016Z,0
2017-04-07T03:45:59.226Z,0
2017-04-07T03:47:08.874Z,0
2017-04-07T03:48:19.148Z,0
2017-04-07T03:49:28.794Z,0
2017-04-07T03:50:39.071Z,0
2017-04-07T03:51:49.692Z,0
2017-04-07T03:52:59.961Z,0
2017-04-07T03:54:10.263Z,0
2017-04-07T03:55:20.534Z,0
2017-04-07T03:56:30.840Z,0
2017-04-07T03:57:41.144Z,0
2017-04-07T03:58:51.412Z,0
2017-04-07T04:00:01.078Z,0
2017-04-07T04:01:11.351Z,0
2017-04-07T04:02:21.619Z,0
2017-04-07T04:03:31.965Z,0
2017-04-07T04:04:41.926Z,0
2017-04-07T04:05:52.193Z,0
2017-04-07T04:07:02.153Z,0
2017-04-07T04:08:11.808Z,0
2017-04-07T04:09:22.115Z,0
2017-04-07T04:10:32.382Z,0
2017-04-07T04:11:42.654Z,0
2017-04-07T04:12:52.928Z,0
2017-04-07T04:14:03.226Z,0
2017-04-07T04:15:13.907Z,0
2017-04-07T04:16:23.868Z,0
2017-04-07T04:17:33.820Z,0
2017-04-07T04:18:44.086Z,0
2017-04-07T04:19:54.354Z,0
2017-04-07T04:21:04.975Z,0
2017-04-07T04:22:15.246Z,0
2017-04-07T04:23:25.204Z,0
2017-04-07T04:24:35.474Z,0
2017-04-07T04:25:45.737Z,0
2017-04-07T04:26:56.052Z,0
2017-04-07T04:28:06.332Z,0
2017-04-07T04:29:16.297Z,0
2017-04-07T04:30:26.565Z,0
2017-04-07T04:31:36.532Z,0
2017-04-07T04:32:47.157Z,0
2017-04-07T04:33:57.427Z,0
2017-04-07T04:35:07.691Z,0
2017-04-07T04:36:17.657Z,0
2017-04-07T04:37:27.935Z,0
2017-04-07T04:38:38.513Z,0
2017-04-07T04:39:48.477Z,0
2017-04-07T04:40:58.452Z,0
2017-04-07T04:42:08.728Z,0
2017-04-07T04:43:18.695Z,0
2017-04-07T04:44:28.961Z,0
2017-04-07T04:45:38.931Z,0
2017-04-07T04:46:49.203Z,0
2017-04-07T04:47:59.165Z,0
2017-04-07T04:49:09.430Z,0
2017-04-07T04:50:19.958Z,0
2017-04-07T04:51:29.921Z,0
2017-04-07T04:52:39.875Z,0
2017-04-07T04:53:49.883Z,0
2017-04-07T04:55:00.159Z,0
2017-04-07T04:56:10.400Z,0
2017-04-07T04:57:20.680Z,0
2017-04-07T04:58:30.949Z,0
2017-04-07T04:59:40.916Z,0
2017-04-07T05:00:50.893Z,0
2017-04-07T05:02:01.414Z,0
2017-04-07T05:03:11.683Z,5
2017-04-07T05:04:21.946Z,5
2017-04-07T05:05:31.909Z,5
2017-04-07T05:06:41.558Z,0
2017-04-07T05:07:52.082Z,0
2017-04-07T05:09:02.351Z,0
2017-04-07T05:10:12.630Z,5
2017-04-07T05:11:22.608Z,0
2017-04-07T05:12:32.565Z,0
2017-04-07T05:13:43.380Z,5
2017-04-07T05:14:53.040Z,5
2017-04-07T05:16:03.026Z,5
2017-04-07T05:17:13.010Z,5
2017-04-07T05:18:23.302Z,5
2017-04-07T05:19:33.532Z,5
2017-04-07T05:20:43.188Z,5
2017-04-07T05:21:53.163Z,5
2017-04-07T05:23:03.486Z,5
2017-04-07T05:24:13.453Z,5
2017-04-07T05:25:24.053Z,5
2017-04-07T05:26:34.325Z,5
2017-04-07T05:27:44.276Z,5
2017-04-07T05:28:54.616Z,5
2017-04-07T05:30:04.606Z,5
2017-04-07T05:31:15.137Z,5
2017-04-07T05:32:25.106Z,5
2017-04-07T05:33:35.081Z,10
2017-04-07T05:34:45.354Z,10
2017-04-07T05:35:55.618Z,5
2017-04-07T05:37:06.140Z,5
2017-04-07T05:38:16.424Z,5
2017-04-07T05:39:26.378Z,5
2017-04-07T05:40:36.666Z,10
2017-04-07T05:41:46.612Z,10
2017-04-07T05:42:56.830Z,10
2017-04-07T05:44:07.100Z,10
2017-04-07T05:45:17.376Z,10
2017-04-07T05:46:27.330Z,10
2017-04-07T05:47:37.602Z,10
2017-04-07T05:48:48.177Z,10
2017-04-07T05:49:58.464Z,10
2017-04-07T05:51:08.126Z,10
2017-04-07T05:52:18.415Z,10
2017-04-07T05:53:28.373Z,10
2017-04-07T05:54:38.578Z,10
2017-04-07T05:55:48.846Z,10
2017-04-07T05:56:58.822Z,10
2017-04-07T05:58:08.820Z,15
2017-04-07T05:59:19.100Z,10
2017-04-07T06:00:29.633Z,15
2017-04-07T06:01:39.607Z,15
2017-04-07T06:02:49.886Z,15
2017-04-07T06:04:00.158Z,15
2017-04-07T06:05:10.428Z,15
2017-04-07T06:06:20.957Z,15
2017-04-07T06:07:31.228Z,15
2017-04-07T06:08:41.527Z,15
2017-04-07T06:09:51.508Z,15
2017-04-07T06:11:01.813Z,15
2017-04-07T06:12:12.388Z,15
2017-04-07T06:13:22.687Z,15
2017-04-07T06:14:32.958Z,20
2017-04-07T06:15:43.235Z,15
2017-04-07T06:16:53.514Z,20
2017-04-07T06:18:04.097Z,20
2017-04-07T06:19:14.412Z,20
2017-04-07T06:20:24.394Z,15
2017-04-07T06:21:34.364Z,15
2017-04-07T06:22:44.336Z,20
2017-04-07T06:23:54.880Z,20
2017-04-07T06:25:05.167Z,15
2017-04-07T06:26:15.456Z,15
2017-04-07T06:27:25.729Z,15
2017-04-07T06:28:36.033Z,15
2017-04-07T06:29:46.559Z,15
2017-04-07T06:30:56.826Z,15
2017-04-07T06:32:06.784Z,20
2017-04-07T06:33:17.056Z,20
2017-04-07T06:34:27.331Z,15
2017-04-07T06:35:37.545Z,15
2017-04-07T06:36:47.822Z,15
2017-04-07T06:37:58.102Z,15
2017-04-07T06:39:08.089Z,15
2017-04-07T06:40:18.071Z,15
2017-04-07T06:41:28.295Z,15
2017-04-07T06:42:38.253Z,15
2017-04-07T06:43:48.571Z,15
2017-04-07T06:44:58.854Z,15
2017-04-07T06:46:09.126Z,10
2017-04-07T06:47:19.021Z,15
2017-04-07T06:48:29.295Z,15
2017-04-07T06:49:39.587Z,15
2017-04-07T06:50:49.862Z,20
2017-04-07T06:51:59.831Z,15
2017-04-07T06:53:10.072Z,20
2017-04-07T06:54:20.349Z,15
2017-04-07T06:55:30.332Z,15
2017-04-07T06:56:40.602Z,15
2017-04-07T06:57:50.696Z,15
2017-04-07T06:59:01.240Z,15
2017-04-07T07:00:11.554Z,15
2017-04-07T07:01:21.230Z,15
2017-04-07T07:02:31.500Z,15
2017-04-07T07:03:41.461Z,15
2017-04-07T07:04:51.992Z,15
2017-04-07T07:06:02.291Z,15
2017-04-07T07:07:12.598Z,15
2017-04-07T07:08:22.595Z,15
2017-04-07T07:09:32.867Z,15
2017-04-07T07:10:43.392Z,15
2017-04-07T07:11:53.363Z,15
2017-04-07T07:13:03.651Z,15
2017-04-07T07:14:13.604Z,15
2017-04-07T07:15:23.876Z,30
2017-04-07T07:16:34.396Z,25
2017-04-07T07:17:44.671Z,25
2017-04-07T07:18:54.325Z,20
2017-04-07T07:20:04.284Z,20
2017-04-07T07:21:14.275Z,20
2017-04-07T07:22:24.810Z,20
2017-04-07T07:23:35.087Z,20
2017-04-07T07:24:45.363Z,25
2017-04-07T07:25:55.326Z,25
2017-04-07T07:27:04.977Z,25
2017-04-07T07:28:15.212Z,25
2017-04-07T07:29:25.505Z,25
2017-04-07T07:30:35.160Z,25
2017-04-07T07:31:45.459Z,25
2017-04-07T07:32:55.765Z,25
2017-04-07T07:34:06.282Z,30
2017-04-07T07:35:16.574Z,25
2017-04-07T07:36:26.539Z,25
2017-04-07T07:37:36.833Z,25
2017-04-07T07:38:47.114Z,30
2017-04-07T07:39:57.643Z,30
2017-04-07T07:41:07.989Z,30
2017-04-07T07:42:18.294Z,25
2017-04-07T07:43:28.601Z,30
2017-04-07T07:44:38.765Z,35
2017-04-07T07:45:49.002Z,30
2017-04-07T07:46:59.273Z,25
2017-04-07T07:48:09.263Z,30
2017-04-07T07:49:19.534Z,35
2017-04-07T07:50:29.497Z,35
2017-04-07T07:51:40.026Z,30
2017-04-07T07:52:49.684Z,35
2017-04-07T07:53:59.966Z,40
2017-04-07T07:55:10.285Z,40
2017-04-07T07:56:20.619Z,35
2017-04-07T07:57:31.159Z,40
2017-04-07T07:58:41.122Z,40
2017-04-07T07:59:51.421Z,45
2017-04-07T08:01:01.405Z,45
2017-04-07T08:02:11.381Z,45
2017-04-07T08:03:21.326Z,50
2017-04-07T08:04:31.282Z,60
2017-04-07T08:05:41.592Z,60
2017-04-07T08:06:51.869Z,65
2017-04-07T08:08:01.845Z,85
2017-04-07T08:09:12.458Z,50
2017-04-07T08:10:22.767Z,50
2017-04-07T08:11:33.041Z,55
2017-04-07T08:12:43.314Z,60
2017-04-07T08:13:53.601Z,65
2017-04-07T08:15:04.182Z,60
2017-04-07T08:16:13.842Z,55
2017-04-07T08:17:23.814Z,50
2017-04-07T08:18:33.774Z,45
2017-04-07T08:19:43.783Z,50
2017-04-07T08:20:54.306Z,50
2017-04-07T08:22:04.670Z,50
2017-04-07T08:23:14.962Z,45
2017-04-07T08:24:24.935Z,45
2017-04-07T08:25:34.663Z,45
2017-04-07T08:26:44.992Z,45
2017-04-07T08:27:55.279Z,45
2017-04-07T08:29:05.672Z,40
2017-04-07T08:30:15.672Z,45
2017-04-07T08:31:25.391Z,40
2017-04-07T08:32:35.940Z,45
2017-04-07T08:33:46.222Z,45
2017-04-07T08:34:56.517Z,50
2017-04-07T08:36:06.525Z,55
2017-04-07T08:37:16.874Z,45
2017-04-07T08:38:27.151Z,45
2017-04-07T08:39:37.431Z,45
2017-04-07T08:40:47.476Z,45
2017-04-07T08:41:57.950Z,50
2017-04-07T08:43:08.232Z,45
2017-04-07T08:44:18.542Z,50
2017-04-07T08:45:28.522Z,45
2017-04-07T08:46:38.801Z,45
2017-04-07T08:47:49.142Z,50
2017-04-07T08:48:59.437Z,60
2017-04-07T08:50:09.686Z,50
2017-04-07T08:51:20.245Z,50
2017-04-07T08:52:30.587Z,45
2017-04-07T08:53:40.907Z,50
2017-04-07T08:54:50.612Z,50
2017-04-07T08:56:01.163Z,45
2017-04-07T08:57:11.462Z,45
2017-04-07T08:58:21.444Z,55
2017-04-07T08:59:31.744Z,50
2017-04-07T09:00:42.035Z,60
2017-04-07T09:01:52.252Z,55
2017-04-07T09:03:02.536Z,45
2017-04-07T09:04:12.535Z,60
2017-04-07T09:05:22.815Z,50
2017-04-07T09:06:33.092Z,55
2017-04-07T09:07:43.638Z,55
2017-04-07T09:08:53.935Z,60
2017-04-07T09:10:04.235Z,65
2017-04-07T09:11:14.204Z,55
2017-04-07T09:12:24.190Z,35
2017-04-07T09:13:34.803Z,45
2017-04-07T09:14:45.112Z,40
2017-04-07T09:15:55.403Z,40
2017-04-07T09:17:05.364Z,60
2017-04-07T09:18:15.670Z,50
2017-04-07T09:19:26.211Z,40
2017-04-07T09:20:36.178Z,50
2017-04-07T09:21:46.480Z,40
2017-04-07T09:22:56.760Z,55
2017-04-07T09:24:07.064Z,55
2017-04-07T09:25:17.341Z,45
2017-04-07T09:26:27.313Z,45
2017-04-07T09:27:37.591Z,45
2017-04-07T09:28:47.881Z,40
2017-04-07T09:29:58.166Z,50
2017-04-07T09:31:08.389Z,55
2017-04-07T09:32:18.372Z,60
2017-04-07T09:33:28.648Z,55
2017-04-07T09:34:38.629Z,55
2017-04-07T09:35:48.595Z,55
2017-04-07T09:36:58.581Z,55
2017-04-07T09:38:08.859Z,75
2017-04-07T09:39:18.846Z,55
2017-04-07T09:40:28.805Z,70
2017-04-07T09:41:39.091Z,60
2017-04-07T09:42:49.367Z,80
2017-04-07T09:43:59.339Z,75
2017-04-07T09:45:09.635Z,65
2017-04-07T09:46:19.634Z,80
2017-04-07T09:47:29.642Z,75
2017-04-07T09:48:40.183Z,100
2017-04-07T09:49:50.161Z,120
2017-04-07T09:51:00.676Z,95
2017-04-07T09:52:10.659Z,100
2017-04-07T09:53:20.948Z,125
2017-04-07T09:54:31.538Z,110
2017-04-07T09:55:41.821Z,105
2017-04-07T09:56:52.127Z,100
2017-04-07T09:58:02.423Z,110
2017-04-07T09:59:12.696Z,110
2017-04-07T10:00:22.941Z,115
2017-04-07T10:01:33.232Z,120
2017-04-07T10:02:43.519Z,130
2017-04-07T10:03:53.493Z,130
2017-04-07T10:05:03.482Z,105
2017-04-07T10:06:13.774Z,100
2017-04-07T10:07:23.740Z,100
2017-04-07T10:08:34.033Z,95
2017-04-07T10:09:43.379Z,95
2017-04-07T10:10:53.671Z,95
2017-04-07T10:12:04.258Z,100
2017-04-07T10:13:14.236Z,75
2017-04-07T10:14:24.533Z,85
2017-04-07T10:15:34.488Z,90
2017-04-07T10:16:44.778Z,85
2017-04-07T10:17:55.316Z,80
2017-04-07T10:19:05.591Z,65
2017-04-07T10:20:15.593Z,70
2017-04-07T10:21:25.877Z,80
2017-04-07T10:22:36.147Z,80
2017-04-07T10:23:46.380Z,75
2017-04-07T10:24:56.703Z,70
2017-04-07T10:26:06.995Z,65
2017-04-07T10:27:17.286Z,75
2017-04-07T10:28:27.568Z,65
2017-04-07T10:29:37.815Z,75
2017-04-07T10:30:47.776Z,75
2017-04-07T10:31:57.760Z,85
2017-04-07T10:33:08.081Z,75
2017-04-07T10:34:18.365Z,85
2017-04-07T10:35:28.875Z,65
2017-04-07T10:36:39.198Z,75
2017-04-07T10:37:49.536Z,70
2017-04-07T10:38:59.830Z,70
2017-04-07T10:40:10.137Z,95
2017-04-07T10:41:20.682Z,70
2017-04-07T10:42:30.663Z,75
2017-04-07T10:43:40.992Z,60
2017-04-07T10:44:51.021Z,70
2017-04-07T10:46:01.304Z,65
2017-04-07T10:47:11.852Z,80
2017-04-07T10:48:22.126Z,65
2017-04-07T10:49:32.410Z,55
2017-04-07T10:50:42.385Z,60
2017-04-07T10:51:52.672Z,70
2017-04-07T10:53:03.226Z,55
2017-04-07T10:54:13.494Z,60
2017-04-07T10:55:23.778Z,75
2017-04-07T10:56:33.750Z,75
2017-04-07T10:57:44.032Z,65
2017-04-07T10:58:54.550Z,75
2017-04-07T11:00:04.528Z,65
2017-04-07T11:01:14.184Z,70
2017-04-07T11:02:24.465Z,50
2017-04-07T11:03:34.439Z,55
2017-04-07T11:04:44.966Z,60
2017-04-07T11:05:54.933Z,65
2017-04-07T11:07:04.896Z,75
2017-04-07T11:08:15.183Z,80
2017-04-07T11:09:25.190Z,80
2017-04-07T11:10:35.414Z,80
2017-04-07T11:11:45.419Z,70
2017-04-07T11:12:55.702Z,70
2017-04-07T11:14:06.005Z,65
2017-04-07T11:15:16.060Z,65
2017-04-07T11:16:26.588Z,75
2017-04-07T11:17:36.548Z,65
2017-04-07T11:18:46.826Z,70
2017-04-07T11:19:56.796Z,60
2017-04-07T11:21:07.095Z,80
2017-04-07T11:22:17.656Z,65
2017-04-07T11:23:27.939Z,60
2017-04-07T11:24:38.222Z,65
2017-04-07T11:25:47.912Z,80
2017-04-07T11:26:58.227Z,70
2017-04-07T11:28:08.777Z,75
2017-04-07T11:29:19.134Z,70
2017-04-07T11:30:29.129Z,55
2017-04-07T11:31:39.122Z,55
2017-04-07T11:32:49.093Z,65
2017-04-07T11:33:59.638Z,65
2017-04-07T11:35:09.940Z,70
2017-04-07T11:36:19.939Z,65
2017-04-07T11:37:30.221Z,60
2017-04-07T11:38:40.515Z,65
2017-04-07T11:39:51.037Z,65
2017-04-07T11:41:01.316Z,65
2017-04-07T11:42:11.421Z,50
2017-04-07T11:43:21.388Z,50
2017-04-07T11:44:31.288Z,55
2017-04-07T11:45:41.508Z,75
2017-04-07T11:46:51.478Z,80
2017-04-07T11:48:01.438Z,65
2017-04-07T11:49:11.784Z,55
2017-04-07T11:50:22.086Z,50
2017-04-07T11:51:32.643Z,65
2017-04-07T11:52:42.629Z,85
2017-04-07T11:53:52.928Z,70
2017-04-07T11:55:02.593Z,60
2017-04-07T11:56:12.897Z,55
2017-04-07T11:57:23.115Z,70
2017-04-07T11:58:32.783Z,70
2017-04-07T11:59:43.078Z,100
2017-04-07T12:00:53.040Z,75
2017-04-07T12:02:03.028Z,70
2017-04-07T12:03:13.575Z,60
2017-04-07T12:04:23.868Z,80
2017-04-07T12:05:34.171Z,60
2017-04-07T12:06:44.198Z,55
2017-04-07T12:07:54.504Z,75
2017-04-07T12:09:05.059Z,95
2017-04-07T12:10:15.350Z,60
2017-04-07T12:11:25.652Z,85
2017-04-07T12:12:35.926Z,70
2017-04-07T12:13:45.283Z,80
2017-04-07T12:14:55.824Z,55
2017-04-07T12:16:06.126Z,70
2017-04-07T12:17:16.431Z,65
2017-04-07T12:18:26.395Z,60
2017-04-07T12:19:36.722Z,75
2017-04-07T12:20:46.941Z,70
2017-04-07T12:21:57.222Z,70
2017-04-07T12:23:07.214Z,65
2017-04-07T12:24:17.189Z,55
2017-04-07T12:25:27.160Z,60
2017-04-07T12:26:37.378Z,50
2017-04-07T12:27:47.680Z,65
2017-04-07T12:28:57.972Z,50
2017-04-07T12:30:07.947Z,60
2017-04-07T12:31:18.239Z,45
2017-04-07T12:32:28.789Z,60
2017-04-07T12:33:38.809Z,85
2017-04-07T12:34:49.591Z,60
2017-04-07T12:35:59.910Z,65
2017-04-07T12:37:10.232Z,60
2017-04-07T12:38:20.799Z,55
2017-04-07T12:39:31.101Z,80
2017-04-07T12:40:41.390Z,70
2017-04-07T12:41:51.673Z,65
2017-04-07T12:43:01.658Z,55
2017-04-07T12:44:11.900Z,60
2017-04-07T12:45:21.885Z,70
2017-04-07T12:46:32.188Z,65
2017-04-07T12:47:42.479Z,55
2017-04-07T12:48:52.751Z,55
2017-04-07T12:50:02.962Z,60
2017-04-07T12:51:12.948Z,65
2017-04-07T12:52:23.253Z,60
2017-04-07T12:53:33.535Z,65
2017-04-07T12:54:43.503Z,60
2017-04-07T12:55:54.099Z,50
2017-04-07T12:57:04.069Z,40
2017-04-07T12:58:14.049Z,45
2017-04-07T12:59:24.037Z,45
2017-04-07T13:00:33.999Z,45
2017-04-07T13:01:44.545Z,40
2017-04-07T13:02:54.843Z,40
2017-04-07T13:04:05.116Z,40
2017-04-07T13:05:15.404Z,40
2017-04-07T13:06:25.680Z,35
2017-04-07T13:07:35.918Z,55
2017-04-07T13:08:45.581Z,40
2017-04-07T13:09:55.873Z,40
2017-04-07T13:11:05.835Z,40
2017-04-07T13:12:16.145Z,40
2017-04-07T13:13:26.381Z,45
2017-04-07T13:14:36.668Z,50
2017-04-07T13:15:46.030Z,45
2017-04-07T13:16:55.681Z,50
2017-04-07T13:18:05.968Z,45
2017-04-07T13:19:16.565Z,40
2017-04-07T13:20:26.232Z,45
2017-04-07T13:21:36.519Z,45
2017-04-07T13:22:46.174Z,45
2017-04-07T13:23:56.456Z,45
2017-04-07T13:25:06.665Z,55
2017-04-07T13:26:17.002Z,45
2017-04-07T13:27:27.293Z,45
2017-04-07T13:28:36.958Z,50
2017-04-07T13:29:47.236Z,45
2017-04-07T13:30:57.776Z,50
2017-04-07T13:32:08.070Z,50
2017-04-07T13:33:18.356Z,60
2017-04-07T13:34:28.655Z,55
2017-04-07T13:35:38.330Z,55
2017-04-07T13:36:48.885Z,70
2017-04-07T13:37:59.164Z,60
2017-04-07T13:39:09.446Z,55
2017-04-07T13:40:19.746Z,50
2017-04-07T13:41:30.026Z,45
2017-04-07T13:42:40.630Z,60
2017-04-07T13:43:50.933Z,60
2017-04-07T13:45:00.912Z,55
2017-04-07T13:46:11.231Z,55
2017-04-07T13:47:21.554Z,50
2017-04-07T13:48:31.797Z,60
2017-04-07T13:49:42.107Z,60
2017-04-07T13:50:52.114Z,60
2017-04-07T13:52:02.417Z,60
2017-04-07T13:53:12.406Z,60
2017-04-07T13:54:22.700Z,50
2017-04-07T13:55:33.025Z,60
2017-04-07T13:56:43.304Z,60
2017-04-07T13:57:53.288Z,60
2017-04-07T13:59:03.282Z,70
2017-04-07T14:00:13.874Z,65
2017-04-07T14:01:24.181Z,65
2017-04-07T14:02:34.474Z,60
2017-04-07T14:03:44.767Z,60
2017-04-07T14:04:54.739Z,70
2017-04-07T14:06:05.312Z,80
2017-04-07T14:07:15.622Z,75
2017-04-07T14:08:25.921Z,70
2017-04-07T14:09:36.215Z,65
2017-04-07T14:10:46.495Z,70
2017-04-07T14:11:57.068Z,75
2017-04-07T14:13:07.367Z,85
2017-04-07T14:14:17.681Z,90
2017-04-07T14:15:27.658Z,70
2017-04-07T14:16:37.948Z,65
2017-04-07T14:17:48.579Z,75
2017-04-07T14:18:58.593Z,80
2017-04-07T14:20:08.888Z,85
2017-04-07T14:21:19.181Z,85
2017-04-07T14:22:29.487Z,85
2017-04-07T14:23:40.033Z,75
2017-04-07T14:24:50.321Z,70
2017-04-07T14:26:00.650Z,55
2017-04-07T14:27:10.625Z,50
2017-04-07T14:28:20.922Z,35
2017-04-07T14:29:31.156Z,35
2017-04-07T14:30:41.129Z,40
2017-04-07T14:31:51.421Z,45
2017-04-07T14:33:01.715Z,50
2017-04-07T14:34:12.020Z,50
2017-04-07T14:35:22.315Z,50
2017-04-07T14:36:32.618Z,50
2017-04-07T14:37:42.611Z,35
2017-04-07T14:38:52.922Z,45
2017-04-07T14:40:03.238Z,50
2017-04-07T14:41:13.813Z,45
2017-04-07T14:42:24.126Z,50
2017-04-07T14:43:34.443Z,45
2017-04-07T14:44:44.758Z,45
2017-04-07T14:45:55.056Z,45
2017-04-07T14:47:05.283Z,35
2017-04-07T14:48:15.601Z,40
2017-04-07T14:49:25.593Z,40
2017-04-07T14:50:35.915Z,35
2017-04-07T14:51:45.909Z,40
2017-04-07T14:52:56.164Z,30
2017-04-07T14:54:06.471Z,35
2017-04-07T14:55:16.132Z,30
2017-04-07T14:56:26.435Z,30
2017-04-07T14:57:36.453Z,35
2017-04-07T14:58:46.997Z,30
2017-04-07T14:59:57.020Z,40
2017-04-07T15:01:07.021Z,35
2017-04-07T15:02:17.023Z,40
2017-04-07T15:03:26.721Z,30
2017-04-07T15:04:37.623Z,25
2017-04-07T15:05:47.925Z,30
2017-04-07T15:06:58.230Z,30
2017-04-07T15:08:08.555Z,30
2017-04-07T15:09:18.559Z,30
2017-04-07T15:10:29.130Z,30
2017-04-07T15:11:39.432Z,25
2017-04-07T15:12:49.773Z,25
2017-04-07T15:14:00.081Z,30
2017-04-07T15:15:10.403Z,30
2017-04-07T15:16:20.780Z,25
2017-04-07T15:17:31.086Z,25
2017-04-07T15:18:41.409Z,30
2017-04-07T15:19:51.713Z,35
2017-04-07T15:21:01.742Z,30
2017-04-07T15:22:12.297Z,35
2017-04-07T15:23:22.637Z,35
2017-04-07T15:24:32.968Z,30
2017-04-07T15:25:43.502Z,35
2017-04-07T15:26:53.499Z,30
2017-04-07T15:28:03.450Z,30
2017-04-07T15:29:13.462Z,35
2017-04-07T15:30:23.765Z,35
2017-04-07T15:31:34.090Z,25
2017-04-07T15:32:44.409Z,35
2017-04-07T15:33:55.045Z,35
2017-04-07T15:35:05.339Z,35
2017-04-07T15:36:15.694Z,30
2017-04-07T15:37:25.703Z,25
2017-04-07T15:38:35.726Z,25
2017-04-07T15:39:46.308Z,30
2017-04-07T15:40:56.634Z,30
2017-04-07T15:42:06.997Z,25
2017-04-07T15:43:17.321Z,25
2017-04-07T15:44:27.019Z,25
2017-04-07T15:45:37.596Z,25
2017-04-07T15:46:47.941Z,20
2017-04-07T15:47:58.241Z,20
2017-04-07T15:49:08.249Z,20
2017-04-07T15:50:18.558Z,25
2017-04-07T15:51:29.124Z,15
2017-04-07T15:52:39.444Z,20
2017-04-07T15:53:49.754Z,20
2017-04-07T15:55:00.089Z,15
2017-04-07T15:56:10.396Z,15
2017-04-07T15:57:20.661Z,25
2017-04-07T15:58:30.969Z,25
2017-04-07T15:59:41.289Z,30
2017-04-07T16:00:51.293Z,20
2017-04-07T16:02:01.279Z,20
2017-04-07T16:03:11.537Z,15
2017-04-07T16:04:22.117Z,20
2017-04-07T16:05:32.128Z,20
2017-04-07T16:06:42.452Z,15
2017-04-07T16:07:52.802Z,15
2017-04-07T16:09:03.390Z,15
2017-04-07T16:10:13.739Z,25
2017-04-07T16:11:23.745Z,25
2017-04-07T16:12:33.778Z,10
2017-04-07T16:13:44.096Z,10
2017-04-07T16:14:54.353Z,10
2017-04-07T16:16:04.371Z,10
2017-04-07T16:17:14.670Z,15
2017-04-07T16:18:24.995Z,10
2017-04-07T16:19:35.301Z,15
2017-04-07T16:20:45.635Z,10
2017-04-07T16:21:55.949Z,15
2017-04-07T16:23:05.967Z,15
2017-04-07T16:24:16.277Z,15
2017-04-07T16:25:26.618Z,15
2017-04-07T16:26:37.182Z,15
2017-04-07T16:27:47.518Z,15
2017-04-07T16:28:57.519Z,15
2017-04-07T16:30:07.535Z,10
2017-04-07T16:31:17.877Z,15
2017-04-07T16:32:28.430Z,15
2017-04-07T16:33:38.147Z,15
2017-04-07T16:34:48.146Z,10
2017-04-07T16:35:58.154Z,10
2017-04-07T16:37:08.164Z,15
2017-04-07T16:38:18.752Z,10
2017-04-07T16:39:29.096Z,10
2017-04-07T16:40:39.114Z,10
2017-04-07T16:41:49.108Z,10
2017-04-07T16:42:59.477Z,10
2017-04-07T16:44:10.122Z,10
2017-04-07T16:45:20.131Z,10
2017-04-07T16:46:30.467Z,5
2017-04-07T16:47:40.780Z,5
2017-04-07T16:48:51.133Z,5
2017-04-07T16:50:01.706Z,5
2017-04-07T16:51:12.029Z,5
2017-04-07T16:52:22.350Z,5